« Back
NWS Peachtree City, Ga » Text Product » ATL Terminal Aerodrome Forecast


Printer-friendly Version
Current Version              Previous Versions:   1  2  3  4  5  6  7  8  9  

Terminal Aerodrome Forecast

402
FTUS42 KFFC 191120
TAFATL
TAF
KATL 191120Z 1912/2018 14006KT 5SM -RA BR OVC008
      TEMPO 1912/1914 3SM BR BKN005
     FM191400 16007KT 6SM BR VCSH OVC008
     FM191600 19010G18KT P6SM -SHRA BKN012 OVC025
      TEMPO 1920/1922 4SM -TSRA BKN010CB
     FM192200 22010G16KT P6SM VCSH BKN030
     FM200200 23008KT P6SM VCSH BKN015
     FM201500 22010G20KT P6SM SHRA OVC030=



USA.gov is the U.S. government's official web portal to all federal, state and local government web resources and services.